Time;durP1;ratioP1;P1;durP2;ratioP2;P2;SDS_P1;SDS_P2;PMS_P1;PMS_P2;Temp;Humidity;BMP_temperature;BMP_pressure;BME280_temperature;BME280_humidity;BME280_pressure;Samples;Min_cycle;Max_cycle;Signal;HPM_P1;HPM_P2
2022/04/05 00:00:17;;;;;;;6.83;6.00;;;;;;;6.64;59.47;96479.38;5045276;28;20241;-57
2022/04/05 00:02:43;;;;;;;7.30;6.70;;;;;;;6.67;59.24;96479.13;5046213;28;20674;-57
2022/04/05 00:05:10;;;;;;;7.50;6.80;;;;;;;6.66;59.12;96483.53;5047132;28;20200;-57
2022/04/05 00:07:37;;;;;;;6.97;6.37;;;;;;;6.61;59.79;96482.25;5045279;28;20196;-57
2022/04/05 00:10:04;;;;;;;6.70;6.20;;;;;;;6.57;59.96;96484.28;5044976;28;20204;-57
2022/04/05 00:12:31;;;;;;;7.83;7.10;;;;;;;6.61;59.23;96477.81;5046049;28;20223;-57
2022/04/05 00:14:58;;;;;;;6.90;6.20;;;;;;;6.57;59.37;96472.94;5054019;28;20206;-57
2022/04/05 00:17:24;;;;;;;7.40;6.70;;;;;;;6.64;59.44;96477.56;5056887;28;20293;-57
2022/04/05 00:19:51;;;;;;;6.47;5.83;;;;;;;6.57;62.05;96465.88;5048135;28;20230;-57
2022/04/05 00:22:17;;;;;;;7.07;6.47;;;;;;;6.57;60.49;96479.03;5043857;28;20208;-57
2022/04/05 00:24:45;;;;;;;6.83;6.23;;;;;;;6.58;60.20;96485.13;5043358;28;20203;-57
2022/04/05 00:27:11;;;;;;;7.27;6.67;;;;;;;6.52;60.69;96470.66;5042313;28;20247;-57
2022/04/05 00:29:38;;;;;;;7.17;6.57;;;;;;;6.52;60.67;96472.50;5043292;28;20199;-57
2022/04/05 00:32:05;;;;;;;8.23;6.87;;;;;;;6.52;60.16;96467.22;5042674;28;20208;-57
2022/04/05 00:34:32;;;;;;;6.90;6.30;;;;;;;6.55;60.44;96464.34;5043111;28;20211;-57
2022/04/05 00:36:58;;;;;;;7.47;6.33;;;;;;;6.56;61.57;96461.59;5042436;28;20207;-57
2022/04/05 00:39:26;;;;;;;7.40;6.80;;;;;;;6.59;61.34;96463.16;5042189;28;20577;-57
2022/04/05 00:41:54;;;;;;;7.10;6.43;;;;;;;6.54;61.48;96458.25;5049760;28;20184;-56
2022/04/05 00:44:21;;;;;;;7.20;6.53;;;;;;;6.46;60.51;96464.13;5062573;28;20195;-57
2022/04/05 00:46:48;;;;;;;7.23;6.53;;;;;;;6.56;60.93;96466.84;5058551;28;20200;-57
2022/04/05 00:49:18;;;;;;;7.20;6.50;;;;;;;6.51;60.41;96458.50;5054742;28;20204;-58
2022/04/05 00:51:44;;;;;;;6.80;6.27;;;;;;;6.45;60.11;96458.97;5060955;28;20195;-57
2022/04/05 00:54:11;;;;;;;7.60;6.90;;;;;;;6.45;60.55;96465.06;5062447;28;20386;-56
2022/04/05 00:56:38;;;;;;;7.40;6.80;;;;;;;6.57;60.31;96462.44;5041906;28;20200;-57
2022/04/05 00:59:06;;;;;;;7.93;6.67;;;;;;;6.52;59.39;96460.16;5041598;28;20218;-58
2022/04/05 01:01:33;;;;;;;7.13;6.53;;;;;;;6.52;59.89;96452.28;5042738;28;20239;-58
2022/04/05 01:04:01;;;;;;;7.40;6.70;;;;;;;6.46;60.35;96455.41;5043618;28;20218;-58
2022/04/05 01:06:29;;;;;;;6.90;6.30;;;;;;;6.39;60.04;96454.22;5042840;28;20301;-58
2022/04/05 01:08:57;;;;;;;8.70;6.20;;;;;;;6.40;60.22;96450.66;5042381;28;20280;-57
2022/04/05 01:11:23;;;;;;;7.90;5.93;;;;;;;6.41;59.87;96461.00;5042517;28;20237;-58
2022/04/05 01:13:50;;;;;;;6.93;6.43;;;;;;;6.38;59.98;96465.69;5042057;28;20187;-57
2022/04/05 01:16:18;;;;;;;6.57;5.97;;;;;;;6.33;60.55;96457.34;5042594;28;20203;-58
2022/04/05 01:18:45;;;;;;;6.33;5.80;;;;;;;6.35;61.16;96458.88;5042128;28;20225;-57
2022/04/05 01:21:12;;;;;;;7.03;6.43;;;;;;;6.31;59.95;96461.88;5041977;28;20223;-57
2022/04/05 01:23:38;;;;;;;8.27;6.83;;;;;;;6.34;60.26;96459.84;5042051;28;20540;-57
2022/04/05 01:26:06;;;;;;;6.87;6.23;;;;;;;6.35;61.80;96458.03;5040864;28;20242;-58
2022/04/05 01:28:32;;;;;;;6.80;6.20;;;;;;;6.45;60.27;96457.19;5042087;28;20230;-57
2022/04/05 01:30:59;;;;;;;7.03;6.10;;;;;;;6.45;61.73;96453.72;5041542;28;20631;-58
2022/04/05 01:33:25;;;;;;;7.27;6.20;;;;;;;6.43;61.42;96450.41;5042853;28;20204;-57
2022/04/05 01:35:52;;;;;;;6.50;6.00;;;;;;;6.57;60.27;96451.91;5041681;28;20215;-56
2022/04/05 01:38:18;;;;;;;6.73;6.13;;;;;;;6.49;59.88;96445.50;5041799;28;20207;-57
2022/04/05 01:40:46;;;;;;;7.70;7.00;;;;;;;6.47;59.84;96449.22;5041769;28;20237;-57
2022/04/05 01:43:14;;;;;;;6.60;5.90;;;;;;;6.48;60.05;96451.69;5043237;28;20207;-57
2022/04/05 01:45:44;;;;;;;8.03;6.90;;;;;;;6.51;60.08;96442.75;5043538;28;20235;-58
2022/04/05 01:48:10;;;;;;;7.27;6.50;;;;;;;6.48;59.77;96453.50;5043581;28;20203;-57
2022/04/05 01:50:36;;;;;;;6.40;5.90;;;;;;;6.43;60.96;96446.00;5045026;28;20267;-57
2022/04/05 01:53:03;;;;;;;6.57;6.07;;;;;;;6.43;62.88;96447.78;5045618;28;20223;-60
2022/04/05 01:55:29;;;;;;;6.63;5.93;;;;;;;6.40;63.11;96451.50;5046001;28;20537;-57
2022/04/05 01:57:56;;;;;;;6.90;6.20;;;;;;;6.37;61.22;96450.91;5043882;28;20192;-57
2022/04/05 02:00:24;;;;;;;6.70;6.00;;;;;;;6.39;61.22;96443.72;5042997;28;20230;-57
2022/04/05 02:02:50;;;;;;;6.03;5.53;;;;;;;6.28;63.63;96444.56;5043778;28;20283;-58
2022/04/05 02:05:17;;;;;;;6.80;6.10;;;;;;;6.28;62.36;96446.34;5042055;28;20208;-59
2022/04/05 02:07:43;;;;;;;6.70;6.00;;;;;;;6.31;61.78;96446.94;5056688;28;20211;-58
2022/04/05 02:10:10;;;;;;;7.03;6.43;;;;;;;6.27;62.98;96442.88;5061490;28;20191;-58
2022/04/05 02:12:37;;;;;;;6.87;6.27;;;;;;;6.24;63.02;96439.69;5073567;28;20271;-57
2022/04/05 02:15:04;;;;;;;6.30;5.80;;;;;;;6.24;62.94;96444.94;5068032;28;20220;-57
2022/04/05 02:17:32;;;;;;;7.57;6.00;;;;;;;6.20;63.04;96430.41;5044587;28;20200;-57
2022/04/05 02:20:00;;;;;;;6.90;6.30;;;;;;;6.09;62.97;96430.41;5044099;28;20227;-57
2022/04/05 02:22:27;;;;;;;6.73;6.20;;;;;;;6.13;63.55;96424.78;5045622;28;20254;-57
2022/04/05 02:24:53;;;;;;;6.73;6.20;;;;;;;6.15;64.80;96428.13;5044688;28;20219;-57
2022/04/05 02:27:20;;;;;;;6.87;6.27;;;;;;;6.10;63.59;96427.66;5044475;28;20231;-57
2022/04/05 02:29:46;;;;;;;7.03;6.43;;;;;;;6.11;63.90;96425.84;5044863;28;20202;-57
2022/04/05 02:32:13;;;;;;;9.23;6.50;;;;;;;6.05;63.68;96429.81;5045095;28;20235;-57
2022/04/05 02:34:42;;;;;;;6.97;6.37;;;;;;;6.08;64.68;96428.72;5045315;28;20215;-57
2022/04/05 02:37:08;;;;;;;7.10;6.40;;;;;;;6.07;63.79;96425.25;5044594;28;20211;-57
2022/04/05 02:39:35;;;;;;;7.70;6.30;;;;;;;6.06;64.32;96422.78;5044395;28;20223;-57
2022/04/05 02:42:01;;;;;;;6.53;6.03;;;;;;;6.06;65.24;96423.59;5045346;28;20229;-57
2022/04/05 02:44:28;;;;;;;7.00;6.40;;;;;;;5.98;63.27;96421.59;5041688;28;20222;-57
2022/04/05 02:46:54;;;;;;;6.83;6.23;;;;;;;6.05;63.23;96423.72;5045549;28;20199;-57
2022/04/05 02:49:21;;;;;;;7.77;6.00;;;;;;;6.05;63.05;96421.09;5044979;28;20211;-57
2022/04/05 02:51:48;;;;;;;6.40;5.80;;;;;;;6.05;64.07;96426.34;5045639;28;20200;-57
2022/04/05 02:54:15;;;;;;;6.97;6.37;;;;;;;6.13;62.27;96416.09;5046903;28;20207;-58
2022/04/05 02:56:42;;;;;;;7.43;6.73;;;;;;;5.96;62.27;96420.84;5058343;28;20197;-57
2022/04/05 02:59:08;;;;;;;6.97;6.27;;;;;;;6.06;62.49;96417.53;5073608;28;20204;-57
2022/04/05 03:01:35;;;;;;;7.50;6.20;;;;;;;6.07;61.80;96420.00;5068092;28;20222;-57
2022/04/05 03:04:01;;;;;;;5.97;5.47;;;;;;;6.08;62.15;96412.97;5051174;28;20299;-57
2022/04/05 03:06:27;;;;;;;6.70;6.10;;;;;;;6.10;62.79;96421.56;5058160;28;20199;-56
2022/04/05 03:08:56;;;;;;;6.70;6.10;;;;;;;6.17;62.41;96412.25;5071587;28;20194;-57
2022/04/05 03:11:23;;;;;;;7.17;6.57;;;;;;;6.17;62.98;96412.25;5068171;28;20264;-57
2022/04/05 03:13:50;;;;;;;6.83;6.33;;;;;;;6.11;62.10;96412.72;5051293;28;20207;-57
2022/04/05 03:16:17;;;;;;;7.23;5.90;;;;;;;6.14;61.44;96408.06;5045970;28;20219;-56
2022/04/05 03:18:45;;;;;;;7.17;6.50;;;;;;;6.16;62.36;96410.59;5042984;28;20206;-57
2022/04/05 03:21:12;;;;;;;7.33;6.63;;;;;;;6.20;60.80;96407.56;5044068;28;20234;-58
2022/04/05 03:23:39;;;;;;;6.93;6.27;;;;;;;6.24;60.48;96411.63;5043003;28;20609;-57
2022/04/05 03:26:06;;;;;;;6.37;5.77;;;;;;;6.30;60.57;96418.22;5043440;28;20234;-57
2022/04/05 03:28:33;;;;;;;6.87;6.27;;;;;;;6.36;61.33;96412.44;5043340;28;20208;-57
2022/04/05 03:30:59;;;;;;;7.63;6.03;;;;;;;6.23;60.68;96406.53;5043583;28;20269;-57
2022/04/05 03:33:26;;;;;;;6.63;6.03;;;;;;;6.25;60.74;96407.22;5043425;28;20195;-56
2022/04/05 03:35:55;;;;;;;6.60;5.97;;;;;;;6.27;60.29;96411.38;5043401;28;20595;-56
2022/04/05 03:38:21;;;;;;;6.83;6.13;;;;;;;6.22;60.21;96403.06;5043054;28;20207;-57
2022/04/05 03:40:48;;;;;;;7.00;6.40;;;;;;;6.27;60.73;96410.56;5043215;28;20683;-57
2022/04/05 03:43:16;;;;;;;7.03;6.33;;;;;;;6.27;60.32;96413.19;5044133;28;20203;-57
2022/04/05 03:45:42;;;;;;;6.97;5.90;;;;;;;6.27;61.67;96419.25;5043969;28;20532;-56
2022/04/05 03:48:09;;;;;;;6.87;6.27;;;;;;;6.29;60.14;96413.91;5044399;28;20200;-57
2022/04/05 03:50:35;;;;;;;6.90;6.30;;;;;;;6.33;60.71;96418.78;5043622;28;20200;-57
2022/04/05 03:53:02;;;;;;;6.93;6.23;;;;;;;6.21;60.22;96409.25;5043562;28;20202;-57
2022/04/05 03:55:29;;;;;;;7.17;6.47;;;;;;;6.24;60.90;96418.66;5043449;28;20200;-57
2022/04/05 03:57:55;;;;;;;7.80;7.10;;;;;;;6.29;60.06;96416.53;5044119;28;20211;-57
2022/04/05 04:00:23;;;;;;;7.20;6.50;;;;;;;6.21;59.62;96413.66;5043912;28;20234;-57
2022/04/05 04:02:49;;;;;;;7.17;6.53;;;;;;;6.29;60.17;96411.28;5042266;28;20273;-57
2022/04/05 04:05:16;;;;;;;7.60;6.90;;;;;;;6.28;62.42;96417.47;5043900;28;20590;-57
2022/04/05 04:07:43;;;;;;;7.17;6.57;;;;;;;6.27;61.15;96413.19;5042079;28;20229;-57
2022/04/05 04:10:10;;;;;;;7.30;6.60;;;;;;;6.24;60.04;96413.41;5042406;28;20262;-57
2022/04/05 04:12:36;;;;;;;7.40;6.60;;;;;;;6.37;60.14;96419.38;5042882;28;20210;-57
2022/04/05 04:15:03;;;;;;;7.20;6.53;;;;;;;6.33;59.90;96415.31;5042988;28;20640;-57
2022/04/05 04:17:31;;;;;;;6.90;6.30;;;;;;;6.32;60.34;96413.66;5045345;28;20223;-56
2022/04/05 04:19:57;;;;;;;7.97;6.53;;;;;;;6.38;60.56;96407.91;5049530;28;20215;-57
2022/04/05 04:22:24;;;;;;;7.00;6.43;;;;;;;6.37;59.70;96408.88;5047185;28;20214;-57
2022/04/05 04:24:50;;;;;;;8.37;6.97;;;;;;;6.45;59.50;96409.91;5043486;28;20227;-57
2022/04/05 04:27:17;;;;;;;8.10;7.40;;;;;;;6.45;60.07;96411.69;5050437;28;20229;-57
2022/04/05 04:29:44;;;;;;;7.80;7.00;;;;;;;6.41;59.61;96412.94;5051156;28;20207;-57
2022/04/05 04:32:10;;;;;;;8.10;7.40;;;;;;;6.45;59.23;96406.44;5050474;28;20532;-57
2022/04/05 04:34:38;;;;;;;7.87;7.07;;;;;;;6.36;59.32;96413.28;5042472;28;20214;-57
2022/04/05 04:37:05;;;;;;;7.60;6.90;;;;;;;6.36;59.98;96405.41;5041774;28;20214;-57
2022/04/05 04:39:31;;;;;;;7.80;7.13;;;;;;;6.39;60.46;96406.94;5042934;28;20195;-57
2022/04/05 04:41:58;;;;;;;8.27;7.47;;;;;;;6.33;60.72;96407.44;5042137;28;20214;-57
2022/04/05 04:44:24;;;;;;;8.33;7.50;;;;;;;6.28;60.26;96410.44;5041868;28;20206;-57
2022/04/05 04:46:51;;;;;;;7.33;6.73;;;;;;;6.33;59.55;96418.78;5042377;28;20204;-57
2022/04/05 04:49:19;;;;;;;7.27;6.67;;;;;;;6.35;61.67;96410.78;5042251;28;20207;-57
2022/04/05 04:51:49;;;;;;;7.40;6.53;;;;;;;6.51;62.14;96416.47;5042298;28;20204;-56
2022/04/05 04:54:15;;;;;;;8.40;7.57;;;;;;;6.44;59.91;96412.69;5042953;28;20194;-56
2022/04/05 04:56:42;;;;;;;7.97;7.27;;;;;;;6.46;60.23;96408.13;5042543;28;20223;-57
2022/04/05 04:59:08;;;;;;;8.10;7.40;;;;;;;6.49;60.53;96413.97;5042526;28;20210;-57
2022/04/05 05:01:35;;;;;;;8.30;7.43;;;;;;;6.75;62.47;96414.50;5042042;28;20252;-56
2022/04/05 05:04:01;;;;;;;7.60;6.87;;;;;;;6.76;59.93;96410.06;5041962;28;20207;-57
2022/04/05 05:06:28;;;;;;;7.80;7.10;;;;;;;6.72;60.31;96404.22;5042198;28;20550;-57
2022/04/05 05:08:56;;;;;;;8.07;7.30;;;;;;;6.73;59.45;96405.88;5041865;28;20643;-56
2022/04/05 05:11:22;;;;;;;7.77;7.07;;;;;;;6.68;61.93;96415.94;5041404;28;20215;-56
2022/04/05 05:13:50;;;;;;;8.67;7.47;;;;;;;6.75;60.82;96408.41;5042551;28;20200;-57
2022/04/05 05:16:17;;;;;;;8.70;7.90;;;;;;;6.69;60.65;96404.50;5043479;28;20208;-55
2022/04/05 05:18:43;;;;;;;8.43;7.63;;;;;;;6.86;57.86;96405.72;5042056;28;20204;-56
2022/04/05 05:21:09;;;;;;;8.70;7.80;;;;;;;6.87;58.63;96412.66;5042326;28;20219;-58
2022/04/05 05:23:37;;;;;;;8.60;7.80;;;;;;;6.77;59.74;96415.19;5041711;28;20214;-57
2022/04/05 05:26:05;;;;;;;9.20;8.10;;;;;;;6.69;59.99;96420.25;5042237;28;20234;-57
2022/04/05 05:28:31;;;;;;;8.57;7.87;;;;;;;6.54;59.67;96412.75;5042164;28;20212;-57
2022/04/05 05:30:58;;;;;;;8.60;7.80;;;;;;;6.48;60.41;96417.53;5042243;28;20219;-56
2022/04/05 05:33:24;;;;;;;8.97;8.07;;;;;;;6.52;62.25;96420.75;5044636;28;20199;-57
2022/04/05 05:35:51;;;;;;;8.53;7.63;;;;;;;6.54;61.30;96420.66;5067003;28;20192;-57
2022/04/05 05:38:17;;;;;;;8.50;7.73;;;;;;;6.55;61.42;96420.53;5062565;28;20210;-59
2022/04/05 05:40:43;;;;;;;9.50;8.60;;;;;;;6.57;60.35;96431.75;5063253;28;20238;-57
2022/04/05 05:43:12;;;;;;;10.70;8.40;;;;;;;6.56;60.81;96423.97;5043867;28;20196;-57
2022/04/05 05:45:38;;;;;;;8.23;7.30;;;;;;;6.62;60.52;96428.75;5042039;28;20200;-57
2022/04/05 05:48:06;;;;;;;10.23;8.40;;;;;;;6.66;57.77;96430.19;5045659;28;20203;-57
2022/04/05 05:50:33;;;;;;;8.37;7.50;;;;;;;6.68;58.07;96423.84;5046611;28;20298;-57
2022/04/05 05:53:00;;;;;;;8.53;7.73;;;;;;;6.67;58.24;96432.66;5045422;28;20195;-58
2022/04/05 05:55:26;;;;;;;8.57;7.77;;;;;;;6.62;57.91;96437.47;5046203;28;20253;-56
2022/04/05 05:57:53;;;;;;;8.90;7.70;;;;;;;6.57;58.61;96434.38;5045886;28;20199;-57
2022/04/05 06:00:22;;;;;;;8.87;7.97;;;;;;;6.60;58.31;96431.50;5046396;28;20208;-56
2022/04/05 06:02:50;;;;;;;8.23;7.53;;;;;;;6.56;59.89;96435.31;5045370;28;20660;-57
2022/04/05 06:05:17;;;;;;;10.73;8.13;;;;;;;6.52;58.72;96436.53;5045836;28;20203;-57
2022/04/05 06:07:43;;;;;;;9.33;7.77;;;;;;;6.54;59.69;96439.03;5045560;28;20211;-57
2022/04/05 06:10:11;;;;;;;8.47;7.67;;;;;;;6.54;59.68;96437.25;5044654;28;20220;-57
2022/04/05 06:12:38;;;;;;;9.83;8.83;;;;;;;6.57;58.41;96441.41;5045545;28;20196;-57
2022/04/05 06:15:08;;;;;;;8.07;7.27;;;;;;;6.58;58.18;96438.69;5044935;28;20242;-56
2022/04/05 06:17:37;;;;;;;8.73;7.60;;;;;;;6.62;57.38;96440.09;5044796;28;20245;-56
2022/04/05 06:20:05;;;;;;;10.17;7.43;;;;;;;6.64;57.88;96443.44;5044970;28;20235;-57
2022/04/05 06:22:32;;;;;;;7.97;7.27;;;;;;;6.75;58.38;96456.53;5045164;28;20243;-56
2022/04/05 06:24:58;;;;;;;8.23;7.53;;;;;;;6.75;58.65;96459.16;5043908;28;20227;-57
2022/04/05 06:27:24;;;;;;;10.17;7.50;;;;;;;6.75;59.29;96455.69;5045118;28;20241;-57
2022/04/05 06:29:51;;;;;;;7.87;7.13;;;;;;;6.74;59.24;96451.38;5045351;28;20207;-57
2022/04/05 06:32:17;;;;;;;8.83;7.90;;;;;;;6.71;59.75;96449.84;5045791;28;20203;-56
2022/04/05 06:34:45;;;;;;;7.97;7.17;;;;;;;6.63;58.90;96449.63;5045674;28;20207;-56
2022/04/05 06:37:12;;;;;;;8.77;7.80;;;;;;;6.78;58.38;96456.28;5047090;28;20199;-56
2022/04/05 06:39:38;;;;;;;8.33;7.43;;;;;;;6.81;57.45;96456.03;5047570;28;20195;-57
2022/04/05 06:42:05;;;;;;;8.50;7.70;;;;;;;6.79;57.23;96452.69;5070624;28;20242;-57
2022/04/05 06:44:31;;;;;;;8.53;7.13;;;;;;;6.81;57.23;96449.94;5069169;28;20190;-58
2022/04/05 06:46:58;;;;;;;9.73;7.30;;;;;;;6.80;57.11;96454.34;5061465;28;20509;-57
2022/04/05 06:49:24;;;;;;;8.37;7.57;;;;;;;6.88;56.02;96451.09;5044264;28;20659;-57
2022/04/05 06:51:52;;;;;;;7.13;6.43;;;;;;;6.96;55.73;96439.00;5044303;28;20206;-57
2022/04/05 06:54:18;;;;;;;7.33;6.63;;;;;;;6.96;55.74;96444.28;5044334;28;20215;-57
2022/04/05 06:56:45;;;;;;;6.63;6.03;;;;;;;6.94;54.85;96451.44;5044382;28;20211;-55
2022/04/05 06:59:11;;;;;;;6.27;5.67;;;;;;;6.97;56.09;96451.22;5043033;28;20546;-57
2022/04/05 07:01:38;;;;;;;6.10;5.50;;;;;;;7.07;55.35;96453.06;5044823;28;20223;-57
2022/04/05 07:04:05;;;;;;;6.10;5.60;;;;;;;7.04;54.72;96455.94;5044240;28;20509;-58
2022/04/05 07:06:32;;;;;;;6.47;5.70;;;;;;;6.90;55.68;96459.72;5045464;28;20203;-56
2022/04/05 07:09:00;;;;;;;6.13;5.57;;;;;;;6.92;56.52;96444.63;5043814;28;20228;-57
2022/04/05 07:11:26;;;;;;;6.73;5.97;;;;;;;6.84;57.29;96449.69;5045995;28;20195;-56
2022/04/05 07:13:53;;;;;;;5.93;5.43;;;;;;;6.72;58.04;96451.53;5043655;28;20211;-57
2022/04/05 07:16:19;;;;;;;5.73;5.23;;;;;;;6.85;57.80;96441.69;5044377;28;20202;-57
2022/04/05 07:18:46;;;;;;;6.47;5.87;;;;;;;6.84;58.08;96442.63;5043442;28;20207;-58
2022/04/05 07:21:12;;;;;;;6.30;5.70;;;;;;;6.79;59.24;96444.81;5043832;28;20235;-56
2022/04/05 07:23:39;;;;;;;5.77;5.27;;;;;;;6.63;60.60;96441.75;5043971;28;20226;-56
2022/04/05 07:26:08;;;;;;;7.43;4.93;;;;;;;6.63;60.21;96447.00;5043413;28;20235;-56
2022/04/05 07:28:35;;;;;;;4.97;4.57;;;;;;;6.63;59.10;96441.75;5043599;28;20208;-56
2022/04/05 07:31:01;;;;;;;5.60;5.10;;;;;;;6.49;59.96;96439.41;5049442;28;20286;-57
2022/04/05 07:33:27;;;;;;;5.30;4.80;;;;;;;6.65;58.23;96436.38;5045135;28;20196;-57
2022/04/05 07:35:54;;;;;;;8.00;5.10;;;;;;;6.63;60.11;96433.88;5044700;28;20548;-56
2022/04/05 07:38:20;;;;;;;5.13;4.73;;;;;;;6.77;59.83;96428.31;5044004;28;20825;-57
2022/04/05 07:40:50;;;;;;;5.80;5.30;;;;;;;6.70;58.44;96436.81;5043098;28;20683;-57
2022/04/05 07:43:19;;;;;;;6.47;5.37;;;;;;;6.57;59.58;96431.75;5043300;28;20681;-57
2022/04/05 07:45:48;;;;;;;5.63;5.13;;;;;;;6.74;58.33;96428.56;5043800;28;20222;-56
2022/04/05 07:48:15;;;;;;;5.87;5.37;;;;;;;6.72;61.06;96430.50;5043632;28;20269;-56
2022/04/05 07:50:41;;;;;;;6.87;5.50;;;;;;;6.79;60.20;96431.69;5044067;28;20211;-56
2022/04/05 07:53:08;;;;;;;5.53;5.03;;;;;;;6.94;57.94;96426.97;5044251;28;20200;-57
2022/04/05 07:55:34;;;;;;;6.10;5.60;;;;;;;7.03;58.62;96425.34;5043443;28;20288;-57
2022/04/05 07:58:00;;;;;;;6.10;5.50;;;;;;;7.05;58.48;96420.81;5043377;28;20740;-56
2022/04/05 08:00:28;;;;;;;5.77;5.27;;;;;;;7.12;58.42;96424.63;5044039;28;20625;-56
2022/04/05 08:02:55;;;;;;;6.03;5.53;;;;;;;7.16;59.08;96426.00;5058196;28;20234;-56
2022/04/05 08:05:23;;;;;;;5.63;5.17;;;;;;;7.22;58.14;96425.50;5064896;28;20191;-57
2022/04/05 08:07:50;;;;;;;5.50;5.00;;;;;;;7.38;58.29;96412.72;5066758;28;20203;-57
2022/04/05 08:10:17;;;;;;;5.30;4.80;;;;;;;7.46;58.86;96408.50;5051629;28;20245;-56
2022/04/05 08:12:45;;;;;;;5.70;5.10;;;;;;;7.43;58.39;96410.56;5048169;28;20452;-58
2022/04/05 08:15:12;;;;;;;5.20;4.77;;;;;;;7.55;58.05;96412.13;5043752;28;20214;-57
2022/04/05 08:17:40;;;;;;;5.03;4.63;;;;;;;7.70;56.74;96410.84;5048067;28;20214;-57
2022/04/05 08:20:10;;;;;;;5.77;4.63;;;;;;;7.74;56.61;96409.63;5044298;28;20212;-56
2022/04/05 08:22:38;;;;;;;5.97;5.33;;;;;;;7.81;56.59;96410.75;5043510;28;20546;-56
2022/04/05 08:25:06;;;;;;;5.80;5.27;;;;;;;7.98;57.33;96411.94;5043473;28;20215;-58
2022/04/05 08:27:33;;;;;;;5.20;4.70;;;;;;;7.88;57.59;96408.44;5042864;28;20309;-55
2022/04/05 08:29:59;;;;;;;5.90;5.40;;;;;;;8.09;57.43;96406.56;5043439;28;20213;-54
2022/04/05 08:32:26;;;;;;;5.63;4.87;;;;;;;8.19;56.80;96403.97;5047993;28;20203;-55
2022/04/05 08:34:54;;;;;;;5.27;4.87;;;;;;;8.25;57.34;96403.44;5048237;28;20242;-57
2022/04/05 08:37:22;;;;;;;5.40;4.80;;;;;;;8.35;57.08;96412.22;5045179;28;20203;-57
2022/04/05 08:39:49;;;;;;;6.07;5.57;;;;;;;8.38;56.75;96406.69;5043481;28;20215;-56
2022/04/05 08:42:16;;;;;;;6.30;5.80;;;;;;;8.52;55.84;96411.56;5043239;28;20215;-57
2022/04/05 08:44:44;;;;;;;6.10;5.60;;;;;;;8.68;55.90;96417.13;5043137;28;20539;-57
2022/04/05 08:47:12;;;;;;;6.20;5.60;;;;;;;8.52;58.36;96416.00;5043841;28;20248;-57
2022/04/05 08:49:39;;;;;;;5.67;5.27;;;;;;;8.74;57.50;96406.06;5049631;28;20196;-56
2022/04/05 08:52:08;;;;;;;6.10;5.30;;;;;;;8.82;57.50;96416.72;5055712;28;20620;-56
2022/04/05 08:54:35;;;;;;;7.30;6.60;;;;;;;8.73;56.98;96409.66;5057673;28;20565;-55
2022/04/05 08:57:01;;;;;;;6.50;5.90;;;;;;;8.89;55.49;96412.56;5059734;28;20199;-55
2022/04/05 08:59:30;;;;;;;6.03;5.53;;;;;;;8.87;55.79;96409.25;5055285;28;20203;-53
2022/04/05 09:01:56;;;;;;;6.20;5.70;;;;;;;8.76;56.97;96406.75;5052143;28;20215;-56
2022/04/05 09:04:23;;;;;;;6.63;6.00;;;;;;;8.87;56.50;96411.06;5053648;28;20204;-58
2022/04/05 09:06:51;;;;;;;6.47;5.33;;;;;;;8.92;56.19;96414.97;5051539;28;20199;-56
2022/04/05 09:09:21;;;;;;;6.80;6.00;;;;;;;8.77;57.00;96416.31;5053480;28;20209;-57
2022/04/05 09:11:49;;;;;;;6.70;6.00;;;;;;;8.87;56.32;96409.25;5047873;28;20205;-55
2022/04/05 09:14:23;;;;;;;6.43;5.83;;;;;;;8.87;56.95;96411.88;5044208;28;20210;-56
2022/04/05 09:17:04;;;;;;;6.90;6.23;;;;;;;8.90;56.24;96421.31;5043286;28;20209;-59
2022/04/05 09:19:36;;;;;;;6.27;5.77;;;;;;;8.99;57.12;96415.22;5042588;28;20605;-60
2022/04/05 09:22:03;;;;;;;6.53;6.00;;;;;;;9.02;57.31;96409.66;5044933;28;20207;-61
2022/04/05 09:24:34;;;;;;;7.50;6.17;;;;;;;8.81;57.61;96401.91;5046417;28;20219;-61
2022/04/05 09:27:01;;;;;;;6.77;6.17;;;;;;;9.07;57.23;96412.72;5045807;28;20270;-60
2022/04/05 09:29:38;;;;;;;7.67;6.97;;;;;;;8.93;57.04;96416.59;5046499;28;20206;-59
2022/04/05 09:32:05;;;;;;;7.43;6.73;;;;;;;9.10;56.01;96411.63;5046139;28;20196;-61
2022/04/05 09:34:32;;;;;;;7.10;6.50;;;;;;;9.14;57.54;96407.72;5046225;28;20218;-60
2022/04/05 09:37:07;;;;;;;7.67;6.97;;;;;;;9.16;56.28;96401.34;5046307;28;20200;-61
2022/04/05 09:39:35;;;;;;;13.53;7.60;;;;;;;9.22;57.09;96399.94;5046326;28;20233;-61
2022/04/05 09:42:05;;;;;;;7.90;7.10;;;;;;;9.21;56.90;96404.38;5046083;28;20515;-59
2022/04/05 09:44:33;;;;;;;7.83;6.80;;;;;;;9.40;57.22;96403.50;5045212;28;20218;-62
2022/04/05 09:47:04;;;;;;;8.17;7.43;;;;;;;9.44;55.95;96402.25;5045587;28;20208;-59
2022/04/05 09:49:32;;;;;;;7.77;7.07;;;;;;;9.59;54.08;96400.84;5044824;28;20674;-59
2022/04/05 09:51:59;;;;;;;7.43;6.83;;;;;;;9.62;54.58;96400.56;5046299;28;20671;-60
2022/04/05 09:54:28;;;;;;;7.67;7.00;;;;;;;9.63;56.11;96399.59;5044988;28;20198;-58
2022/04/05 09:57:03;;;;;;;7.87;6.90;;;;;;;9.69;53.88;96404.28;5046246;28;20199;-59
2022/04/05 09:59:38;;;;;;;9.03;7.33;;;;;;;9.72;54.95;96406.63;5045815;28;20605;-56
2022/04/05 10:02:12;;;;;;;16.33;14.40;;;;;;;9.98;55.94;96404.19;5045299;28;20216;-57
2022/04/05 10:05:01;;;;;;;8.77;7.53;;;;;;;10.09;54.91;96400.53;5045543;28;20666;-57
2022/04/05 10:07:28;;;;;;;7.17;6.63;;;;;;;10.37;53.47;96402.25;5046238;28;20238;-57
2022/04/05 10:09:55;;;;;;;8.23;7.43;;;;;;;10.43;54.12;96399.00;5046324;28;20207;-57
2022/04/05 10:12:24;;;;;;;8.30;7.53;;;;;;;10.47;54.16;96395.91;5045999;28;20199;-58
2022/04/05 10:14:50;;;;;;;8.80;7.87;;;;;;;10.70;54.54;96396.31;5043670;28;20233;-57
2022/04/05 10:17:19;;;;;;;8.07;7.20;;;;;;;10.74;54.00;96397.69;5046043;28;20651;-57
2022/04/05 10:19:48;;;;;;;7.80;7.17;;;;;;;10.84;52.39;96398.44;5046036;28;20207;-56
2022/04/05 10:22:17;;;;;;;8.47;7.50;;;;;;;10.93;53.01;96394.91;5046749;28;20516;-57
2022/04/05 10:24:43;;;;;;;12.07;7.77;;;;;;;10.81;53.92;96393.44;5053184;28;20210;-57
2022/04/05 10:27:11;;;;;;;7.93;7.27;;;;;;;11.07;53.69;96392.69;5051547;28;20247;-57
2022/04/05 10:29:39;;;;;;;8.63;7.83;;;;;;;11.30;52.20;96386.75;5063683;28;20211;-57
2022/04/05 10:32:11;;;;;;;7.70;7.00;;;;;;;11.29;51.09;96381.63;5066141;28;20210;-57
2022/04/05 10:34:42;;;;;;;7.60;6.97;;;;;;;11.27;51.98;96376.50;5070849;28;20215;-58
2022/04/05 10:37:16;;;;;;;8.17;7.43;;;;;;;11.33;49.96;96377.72;5048291;28;20202;-57
2022/04/05 10:39:43;;;;;;;8.07;7.27;;;;;;;11.21;50.51;96373.63;5051645;28;20222;-57
2022/04/05 10:42:20;;;;;;;7.83;7.10;;;;;;;11.25;50.10;96369.69;5064303;28;20210;-57
2022/04/05 10:45:11;;;;;;;8.60;7.87;;;;;;;11.16;49.30;96370.63;5055160;28;20199;-57
2022/04/05 10:47:58;;;;;;;7.90;7.20;;;;;;;11.15;50.07;96368.97;5047574;28;20540;-58
2022/04/05 10:50:25;;;;;;;7.93;7.17;;;;;;;10.97;52.22;96361.88;5046617;28;20243;-58
2022/04/05 10:53:13;;;;;;;8.13;7.43;;;;;;;11.02;51.74;96360.59;5062503;28;20200;-57
2022/04/05 10:56:14;;;;;;;7.67;6.97;;;;;;;11.03;52.76;96365.72;5065009;28;20204;-57
2022/04/05 10:58:44;;;;;;;8.10;7.30;;;;;;;10.85;52.66;96357.78;5061770;28;20227;-58
2022/04/05 11:01:15;;;;;;;8.80;7.90;;;;;;;10.90;53.64;96350.22;5068275;28;20199;-58
2022/04/05 11:03:44;;;;;;;8.27;7.13;;;;;;;11.04;52.56;96345.38;5065873;28;20215;-57
2022/04/05 11:06:10;;;;;;;7.80;7.10;;;;;;;11.06;51.04;96343.41;5070764;28;20200;-57
2022/04/05 11:08:37;;;;;;;7.57;6.57;;;;;;;11.21;50.95;96331.28;5058420;28;20227;-57
2022/04/05 11:11:08;;;;;;;7.90;7.20;;;;;;;11.12;50.69;96337.50;5058194;28;20218;-57
2022/04/05 11:13:42;;;;;;;7.73;7.13;;;;;;;11.17;51.84;96333.41;5058557;28;20188;-58
2022/04/05 11:16:11;;;;;;;7.70;6.90;;;;;;;11.34;50.57;96337.00;5066183;28;20187;-57
2022/04/05 11:18:41;;;;;;;7.43;6.63;;;;;;;11.54;49.46;96322.56;5062689;28;20661;-57
2022/04/05 11:21:09;;;;;;;8.00;7.20;;;;;;;12.00;49.41;96323.16;5051381;28;20215;-58
2022/04/05 11:23:44;;;;;;;7.07;6.47;;;;;;;12.62;48.89;96320.03;5048678;28;20238;-58
2022/04/05 11:26:41;;;;;;;7.77;7.07;;;;;;;12.99;46.59;96332.84;5056996;28;20230;-57
2022/04/05 11:29:20;;;;;;;6.80;6.07;;;;;;;13.69;45.97;96315.34;5002105;28;20200;-58
2022/04/05 11:31:48;;;;;;;6.87;6.27;;;;;;;14.39;43.62;96310.13;5037521;28;20257;-59
2022/04/05 11:34:39;;;;;;;7.13;6.60;;;;;;;14.98;46.34;96310.41;5044007;28;20208;-58
2022/04/05 11:37:07;;;;;;;7.13;6.60;;;;;;;14.98;43.42;96313.06;5043862;28;20214;-58
2022/04/05 11:39:38;;;;;;;6.23;5.73;;;;;;;15.68;44.37;96310.97;5043098;28;20206;-57
2022/04/05 11:42:05;;;;;;;6.63;6.13;;;;;;;15.48;39.64;96305.28;5044270;28;20206;-58
2022/04/05 11:44:32;;;;;;;6.80;6.20;;;;;;;15.40;42.17;96305.38;5042910;28;20229;-57